Brimley, MI

8:27 AM EDT on July 07, 2015 (GMT -0400)
BMCC Lake Superior | | Change Station
CLOSE
Current Station
Personal Weather Station
Location: Brimley, MI
Elevation: 645 ft
Nearby Weather Stations

Elev 645 ft 46.45 °N, 84.61 °W | Updated 2 seconds ago

Mostly Cloudy
Mostly Cloudy
52.2 °F
Feels Like 52.2 °F
N
11.2
Wind Variable Wind from NW
Gusts 30.8 mph

Today
High -- | Low -- °F
--% Chance of Precip.
Yesterday
High -- | Low -- °F
Precip. -- in
5:53 AM 9:32 PM
Waning Gibbous, 65% visible
Pressure 29.84 in
Visibility 8.0 miles
Clouds Overcast 1500 ft
Dew Point 50 °F
Humidity 93%
Rainfall 0.14 in
Snow Depth Not available.
UV 0 out of 12
Pollen .60 out of 12
Air Quality Not available.
Flu Activity Not available.
SPECI KANJ 071208Z AUTO 31007KT 8SM OVC015 13/12 A2984 RMK AO2 T01330117

More Conditions Fewer Conditions

Pressure 29.84 in
Visibility 8.0 miles
Clouds Overcast 1500 ft
Dew Point 50 °F
Humidity 93%
Rainfall 0.14 in
Snow Depth Not available.
UV 0 out of 12
Pollen .60 out of 12
Air Quality Not available.
Flu Activity Not available.
SPECI KANJ 071208Z AUTO 31007KT 8SM OVC015 13/12 A2984 RMK AO2 T01330117

More Conditions Fewer Conditions

Nowcast | as of 8:00 am EDT on July 7, 2015

At 9 am...partly cloudy. Temperature 55. Northwest winds 13 mph. At 11 am...partly cloudy. Temperature 57. Northwest winds 15 mph. At 1 PM...partly cloudy. Temperature 62. Northwest winds 16 mph. At 3 PM...partly cloudy. Temperature 65. Northwest winds 18 mph.

×

10-Day Weather Forecast

×

Almanac

Astronomy

Jul. 07, 2015 Rise Set
Actual Time
Civil Twilight
Nautical Twilight
Astronomical Twilight
Moon
Length of Visible Light
Length of Day
Tomorrow will be .
, % of the Moon is Illuminated

Today's Extremes

State Highs State Lows

Community

WunderPhotos

Upload Photos

1,835,785 photos uploaded!

WunderBlogs® & News

Nearby

Air Quality

  Air Quality AQ Index Pollutant
Not available.

Snow Depth

Station Depth Elevation

Earthquake Activity

City Distance Mag. Time & Date
Minimum magnitude displayed is 2.5.

Coastal Water Temperatures

Place Temperature

Stations

Nearby Weather Stations

Station Location Temp. Windchill Dew Point Humidity Wind Precip. Elev Updated Type